createdAt,value
2019-01-27T00:01:18.649Z,7.20
2019-01-27T00:04:20.628Z,7.20
2019-01-27T00:07:22.213Z,7.20
2019-01-27T00:10:24.254Z,7.20
2019-01-27T00:13:28.195Z,7.20
2019-01-27T00:16:29.952Z,7.20
2019-01-27T00:19:31.351Z,7.20
2019-01-27T00:22:32.906Z,7.20
2019-01-27T00:25:34.303Z,7.20
2019-01-27T00:28:35.811Z,7.20
2019-01-27T00:31:40.063Z,7.20
2019-01-27T00:34:41.619Z,7.30
2019-01-27T00:37:43.037Z,7.20
2019-01-27T00:40:44.412Z,7.30
2019-01-27T00:43:45.997Z,7.20
2019-01-27T00:46:47.479Z,7.20
2019-01-27T00:49:48.875Z,7.20
2019-01-27T00:52:50.243Z,7.30
2019-01-27T00:55:52.249Z,7.30
2019-01-27T00:58:53.844Z,7.20
2019-01-27T01:01:55.479Z,7.20
2019-01-27T01:04:56.844Z,7.30
2019-01-27T01:07:59.226Z,7.30
2019-01-27T01:11:01.379Z,7.20
2019-01-27T01:14:04.515Z,7.30
2019-01-27T01:17:08.067Z,7.30
2019-01-27T01:20:14.772Z,7.30
2019-01-27T01:23:16.573Z,7.30
2019-01-27T01:26:18.057Z,7.30
2019-01-27T01:29:19.641Z,7.30
2019-01-27T01:32:21.068Z,7.30
2019-01-27T01:35:22.607Z,7.30
2019-01-27T01:38:24.116Z,7.30
2019-01-27T01:41:25.553Z,7.30
2019-01-27T01:44:32.383Z,7.30
2019-01-27T01:47:33.936Z,7.30
2019-01-27T01:50:35.403Z,7.30
2019-01-27T01:53:36.871Z,7.30
2019-01-27T01:56:38.443Z,7.30
2019-01-27T01:59:41.569Z,7.30
2019-01-27T02:02:42.978Z,7.30
2019-01-27T02:05:44.599Z,7.30
2019-01-27T02:08:46.474Z,7.30
2019-01-27T02:11:47.943Z,7.30
2019-01-27T02:14:49.438Z,7.30
2019-01-27T02:17:50.823Z,7.30
2019-01-27T02:20:52.665Z,7.30
2019-01-27T02:23:54.482Z,7.30
2019-01-27T02:26:57.791Z,7.30
2019-01-27T02:30:00.351Z,7.30
2019-01-27T02:33:01.886Z,7.30
2019-01-27T02:36:06.239Z,7.30
2019-01-27T02:39:10.321Z,7.40
2019-01-27T02:42:11.776Z,7.40
2019-01-27T02:45:13.318Z,7.40
2019-01-27T02:48:14.891Z,7.40
2019-01-27T02:51:16.289Z,7.40
2019-01-27T02:54:17.685Z,7.40
2019-01-27T02:57:19.123Z,7.40
2019-01-27T03:00:20.666Z,7.40
2019-01-27T03:03:22.474Z,7.40
2019-01-27T03:06:46.128Z,7.40
2019-01-27T03:09:47.786Z,7.40
2019-01-27T03:12:51.973Z,7.40
2019-01-27T03:15:53.557Z,7.40
2019-01-27T03:18:55.055Z,7.40
2019-01-27T03:21:56.640Z,7.40
2019-01-27T03:25:02.398Z,7.40
2019-01-27T03:28:04.002Z,7.40
2019-01-27T03:31:05.513Z,7.40
2019-01-27T03:34:07.376Z,7.40
2019-01-27T03:37:09.310Z,7.40
2019-01-27T03:40:13.580Z,7.40
2019-01-27T03:43:14.951Z,7.40
2019-01-27T03:46:16.396Z,7.40
2019-01-27T03:49:17.801Z,7.50
2019-01-27T03:52:19.180Z,7.50
2019-01-27T03:55:22.410Z,7.50
2019-01-27T03:58:23.963Z,7.50
2019-01-27T04:01:25.432Z,7.50
2019-01-27T04:04:27.076Z,7.50
2019-01-27T04:07:28.423Z,7.50
2019-01-27T04:10:29.902Z,7.50
2019-01-27T04:13:32.845Z,7.50
2019-01-27T04:16:34.476Z,7.50
2019-01-27T04:19:38.907Z,7.50
2019-01-27T04:22:40.274Z,7.50
2019-01-27T04:25:43.472Z,7.50
2019-01-27T04:28:44.963Z,7.50
2019-01-27T04:31:46.321Z,7.50
2019-01-27T04:34:47.766Z,7.50
2019-01-27T04:37:49.223Z,7.50
2019-01-27T04:40:50.773Z,7.50
2019-01-27T04:43:52.111Z,7.50
2019-01-27T04:46:53.566Z,7.50
2019-01-27T04:49:54.935Z,7.50
2019-01-27T04:52:56.310Z,7.50
2019-01-27T04:55:57.695Z,7.60
2019-01-27T04:59:00.927Z,7.60
2019-01-27T05:02:02.321Z,7.50
2019-01-27T05:05:03.913Z,7.60
2019-01-27T05:08:06.025Z,7.60
2019-01-27T05:11:07.475Z,7.60
2019-01-27T05:14:08.931Z,7.60
2019-01-27T05:17:10.336Z,7.60
2019-01-27T05:20:13.588Z,7.60
2019-01-27T05:23:15.531Z,7.60
2019-01-27T05:26:17.421Z,7.60
2019-01-27T05:29:19.185Z,7.60
2019-01-27T05:32:22.148Z,7.60
2019-01-27T05:35:23.576Z,7.60
2019-01-27T05:38:25.101Z,7.60
2019-01-27T05:41:26.580Z,7.60
2019-01-27T05:44:27.963Z,7.60
2019-01-27T05:47:29.438Z,7.60
2019-01-27T05:50:30.868Z,7.60
2019-01-27T05:53:32.209Z,7.60
2019-01-27T05:56:33.772Z,7.60
2019-01-27T05:59:35.106Z,7.60
2019-01-27T06:02:36.513Z,7.60
2019-01-27T06:05:37.958Z,7.60
2019-01-27T06:08:39.400Z,7.60
2019-01-27T06:11:40.805Z,7.60
2019-01-27T06:14:43.777Z,7.60
2019-01-27T06:17:45.344Z,7.60
2019-01-27T06:20:46.687Z,7.60
2019-01-27T06:23:48.105Z,7.60
2019-01-27T06:26:49.517Z,7.60
2019-01-27T06:29:50.962Z,7.60
2019-01-27T06:33:23.513Z,7.60
2019-01-27T06:36:24.948Z,7.60
2019-01-27T06:39:26.309Z,7.60
2019-01-27T06:42:27.694Z,7.60
2019-01-27T06:45:29.127Z,7.60
2019-01-27T06:48:30.544Z,7.60
2019-01-27T06:51:34.999Z,7.60
2019-01-27T06:54:36.366Z,7.60
2019-01-27T06:57:39.783Z,7.60
2019-01-27T07:01:12.165Z,7.60
2019-01-27T07:04:32.683Z,7.60
2019-01-27T07:07:49.579Z,7.70
2019-01-27T07:11:15.506Z,7.70
2019-01-27T07:14:42.286Z,7.50
2019-01-27T07:17:59.434Z,7.40
2019-01-27T07:21:10.339Z,7.40
2019-01-27T07:24:30.025Z,7.30
2019-01-27T07:27:38.198Z,7.20
2019-01-27T07:30:51.117Z,7.20
2019-01-27T07:34:10.345Z,7.30
2019-01-27T07:37:30.531Z,7.20
2019-01-27T07:40:47.871Z,7.20
2019-01-27T07:44:00.176Z,7.20
2019-01-27T07:47:23.360Z,7.20
2019-01-27T07:50:56.143Z,7.30
2019-01-27T07:54:16.606Z,7.30
2019-01-27T07:57:58.836Z,7.30
2019-01-27T08:01:05.301Z,7.30
2019-01-27T08:04:37.493Z,7.40
2019-01-27T08:08:00.347Z,7.40
2019-01-27T08:11:11.361Z,7.40
2019-01-27T08:14:30.838Z,7.40
2019-01-27T08:17:44.943Z,7.40
2019-01-27T08:21:03.930Z,8.00
2019-01-27T08:24:18.970Z,7.80
2019-01-27T08:27:46.014Z,7.70
2019-01-27T08:31:06.815Z,7.70
2019-01-27T08:34:33.461Z,7.80
2019-01-27T08:37:41.179Z,7.80
2019-01-27T08:41:01.296Z,7.80
2019-01-27T08:44:25.391Z,7.90
2019-01-27T08:47:26.920Z,7.90
2019-01-27T08:50:28.475Z,8.00
2019-01-27T08:53:30.004Z,8.00
2019-01-27T08:56:31.465Z,8.00
2019-01-27T08:59:32.884Z,8.10
2019-01-27T09:02:59.245Z,8.10
2019-01-27T09:06:06.603Z,8.10
2019-01-27T09:09:29.500Z,8.20
2019-01-27T09:12:39.827Z,8.20
2019-01-27T09:16:11.448Z,8.20
2019-01-27T09:19:44.241Z,8.20
2019-01-27T09:23:04.975Z,8.30
2019-01-27T09:26:41.326Z,8.40
2019-01-27T09:29:57.185Z,8.40
2019-01-27T09:33:08.226Z,8.40
2019-01-27T09:36:22.642Z,8.40
2019-01-27T09:39:47.204Z,8.40
2019-01-27T09:43:10.018Z,8.40
2019-01-27T09:46:40.176Z,8.50
2019-01-27T09:49:59.382Z,8.60
2019-01-27T09:53:08.807Z,8.70
2019-01-27T09:56:27.957Z,8.70
2019-01-27T09:59:38.333Z,8.80
2019-01-27T10:02:44.672Z,8.90
2019-01-27T10:06:09.293Z,9.00
2019-01-27T10:09:35.222Z,9.20
2019-01-27T10:13:04.582Z,9.30
2019-01-27T10:16:31.602Z,9.30
2019-01-27T10:19:41.737Z,9.40
2019-01-27T10:23:14.197Z,9.50
2019-01-27T10:26:27.519Z,9.60
2019-01-27T10:29:46.831Z,9.70
2019-01-27T10:32:56.835Z,9.80
2019-01-27T10:36:18.593Z,9.80
2019-01-27T10:39:24.718Z,9.90
2019-01-27T10:42:34.295Z,10.00
2019-01-27T10:45:51.235Z,10.00
2019-01-27T10:49:10.023Z,10.10
2019-01-27T10:52:41.459Z,10.20
2019-01-27T10:56:00.888Z,10.20
2019-01-27T10:59:17.494Z,10.20
2019-01-27T11:02:38.061Z,10.30
2019-01-27T11:05:53.159Z,10.40
2019-01-27T11:09:29.298Z,10.40
2019-01-27T11:12:42.157Z,10.40
2019-01-27T11:16:08.392Z,10.50
2019-01-27T11:19:22.717Z,10.60
2019-01-27T11:22:48.322Z,10.60
2019-01-27T11:26:11.525Z,10.70
2019-01-27T11:29:50.061Z,10.70
2019-01-27T11:33:31.713Z,10.80
2019-01-27T11:36:51.033Z,11.00
2019-01-27T11:40:10.858Z,11.00
2019-01-27T11:43:40.525Z,11.10
2019-01-27T11:47:13.017Z,11.20
2019-01-27T11:50:29.365Z,11.20
2019-01-27T11:53:30.928Z,11.20
2019-01-27T11:56:32.700Z,11.30
2019-01-27T11:59:34.335Z,11.30
2019-01-27T12:02:35.925Z,11.40
2019-01-27T12:05:39.087Z,11.40
2019-01-27T12:08:40.702Z,11.50
2019-01-27T12:11:42.772Z,11.50
2019-01-27T12:14:47.961Z,11.50
2019-01-27T12:17:49.603Z,11.50
2019-01-27T12:20:51.092Z,11.60
2019-01-27T12:23:53.060Z,11.50
2019-01-27T12:26:54.664Z,11.60
2019-01-27T12:29:56.459Z,11.70
2019-01-27T12:32:59.737Z,11.80
2019-01-27T12:36:01.268Z,12.10
2019-01-27T12:39:05.430Z,12.50
2019-01-27T12:42:08.592Z,12.80
2019-01-27T12:45:12.934Z,13.00
2019-01-27T12:48:14.535Z,13.00
2019-01-27T12:51:16.022Z,13.10
2019-01-27T12:54:17.545Z,13.10
2019-01-27T12:57:19.236Z,13.10
2019-01-27T13:00:33.874Z,13.20
2019-01-27T13:03:35.428Z,13.30
2019-01-27T13:06:37.185Z,13.30
2019-01-27T13:09:38.622Z,13.30
2019-01-27T13:12:40.128Z,13.40
2019-01-27T13:15:43.904Z,13.30
2019-01-27T13:18:45.745Z,13.30
2019-01-27T13:21:47.540Z,13.30
2019-01-27T13:24:49.470Z,13.30
2019-01-27T13:27:54.393Z,13.30
2019-01-27T13:30:56.276Z,13.30
2019-01-27T13:33:57.826Z,13.30
2019-01-27T13:36:59.629Z,13.30
2019-01-27T13:40:01.620Z,13.30
2019-01-27T13:43:03.283Z,13.30
2019-01-27T13:46:04.806Z,13.30
2019-01-27T13:49:06.745Z,13.30
2019-01-27T13:52:08.272Z,13.20
2019-01-27T13:55:15.578Z,13.20
2019-01-27T13:58:17.122Z,13.20
2019-01-27T14:01:19.143Z,13.20
2019-01-27T14:04:22.548Z,13.20
2019-01-27T14:07:24.167Z,13.20
2019-01-27T14:10:27.553Z,13.20
2019-01-27T14:13:32.067Z,13.20
2019-01-27T14:16:33.964Z,13.20
2019-01-27T14:19:35.561Z,13.10
2019-01-27T14:22:37.194Z,13.10
2019-01-27T14:25:38.782Z,13.10
2019-01-27T14:28:40.597Z,13.10
2019-01-27T14:31:42.111Z,13.00
2019-01-27T14:34:43.763Z,13.00
2019-01-27T14:37:45.592Z,13.00
2019-01-27T14:40:47.176Z,13.00
2019-01-27T14:43:51.567Z,13.00
2019-01-27T14:46:53.803Z,13.00
2019-01-27T14:49:57.713Z,12.90
2019-01-27T14:53:02.104Z,12.90
2019-01-27T14:56:03.969Z,12.90
2019-01-27T14:59:06.741Z,12.90
2019-01-27T15:02:08.267Z,12.80
2019-01-27T15:05:15.652Z,12.80
2019-01-27T15:08:17.368Z,12.80
2019-01-27T15:11:19.007Z,12.80
2019-01-27T15:14:20.567Z,12.70
2019-01-27T15:17:22.184Z,12.70
2019-01-27T15:20:34.962Z,12.70
2019-01-27T15:23:36.407Z,12.70
2019-01-27T15:26:37.895Z,12.70
2019-01-27T15:29:41.903Z,12.70
2019-01-27T15:32:46.646Z,12.70
2019-01-27T15:35:48.487Z,12.70
2019-01-27T15:38:52.212Z,12.70
2019-01-27T15:41:54.437Z,12.60
2019-01-27T15:44:56.114Z,12.60
2019-01-27T15:47:57.668Z,12.60
2019-01-27T15:50:59.782Z,12.60
2019-01-27T15:54:01.469Z,12.50
2019-01-27T15:57:03.351Z,12.50
2019-01-27T16:00:08.468Z,12.50
2019-01-27T16:03:11.063Z,12.40
2019-01-27T16:06:12.883Z,12.40
2019-01-27T16:09:14.724Z,12.30
2019-01-27T16:12:16.478Z,12.30
2019-01-27T16:15:21.919Z,12.30
2019-01-27T16:18:23.594Z,12.20
2019-01-27T16:21:26.263Z,12.20
2019-01-27T16:24:34.448Z,12.10
2019-01-27T16:27:37.009Z,12.10
2019-01-27T16:31:14.269Z,12.10
2019-01-27T16:34:20.815Z,12.00
2019-01-27T16:37:22.493Z,12.00
2019-01-27T16:40:24.018Z,12.00
2019-01-27T16:43:26.001Z,11.90
2019-01-27T16:46:27.607Z,11.90
2019-01-27T16:49:29.169Z,11.90
2019-01-27T16:52:31.013Z,11.80
2019-01-27T16:55:32.580Z,11.80
2019-01-27T16:58:37.471Z,11.80
2019-01-27T17:01:39.148Z,11.70
2019-01-27T17:04:46.325Z,11.70
2019-01-27T17:07:47.930Z,11.70
2019-01-27T17:10:49.546Z,11.60
2019-01-27T17:13:51.111Z,11.60
2019-01-27T17:16:56.115Z,11.60
2019-01-27T17:20:02.527Z,11.60
2019-01-27T17:23:02.058Z,11.50
2019-01-27T17:26:05.467Z,11.50
2019-01-27T17:29:07.497Z,11.50
2019-01-27T17:32:09.075Z,11.50
2019-01-27T17:35:14.630Z,11.40
2019-01-27T17:38:16.657Z,11.40
2019-01-27T17:41:18.193Z,11.40
2019-01-27T17:44:19.820Z,11.40
2019-01-27T17:47:22.660Z,11.40
2019-01-27T17:50:24.525Z,11.30
2019-01-27T17:53:28.742Z,11.30
2019-01-27T17:56:31.987Z,11.30
2019-01-27T17:59:41.730Z,11.30
2019-01-27T18:02:53.064Z,11.20
2019-01-27T18:06:15.050Z,11.20
2019-01-27T18:09:37.705Z,11.20
2019-01-27T18:12:46.067Z,11.10
2019-01-27T18:15:53.341Z,11.10
2019-01-27T18:18:58.347Z,11.10
2019-01-27T18:22:01.713Z,11.10
2019-01-27T18:25:03.632Z,11.00
2019-01-27T18:28:05.664Z,11.00
2019-01-27T18:31:07.267Z,11.00
2019-01-27T18:34:11.516Z,10.90
2019-01-27T18:37:15.189Z,10.90
2019-01-27T18:40:17.532Z,10.90
2019-01-27T18:43:19.187Z,10.90
2019-01-27T18:46:21.617Z,10.90
2019-01-27T18:49:24.873Z,10.80
2019-01-27T18:52:31.314Z,10.80
2019-01-27T18:55:43.622Z,10.80
2019-01-27T18:59:04.724Z,10.80
2019-01-27T19:02:13.912Z,10.70
2019-01-27T19:05:45.135Z,10.70
2019-01-27T19:09:07.608Z,10.70
2019-01-27T19:12:40.162Z,10.60
2019-01-27T19:15:58.819Z,10.60
2019-01-27T19:19:22.474Z,10.60
2019-01-27T19:22:52.188Z,10.60
2019-01-27T19:26:11.538Z,10.50
2019-01-27T19:29:40.226Z,10.50
2019-01-27T19:33:00.580Z,10.50
2019-01-27T19:36:12.331Z,10.50
2019-01-27T19:39:35.785Z,10.50
2019-01-27T19:43:06.282Z,10.40
2019-01-27T19:46:28.685Z,10.40
2019-01-27T19:49:55.000Z,10.30
2019-01-27T19:53:08.140Z,10.30
2019-01-27T19:56:31.701Z,10.30
2019-01-27T19:59:55.949Z,10.30
2019-01-27T20:03:06.932Z,10.30
2019-01-27T20:06:21.064Z,10.20
2019-01-27T20:09:30.842Z,10.20
2019-01-27T20:12:45.301Z,10.20
2019-01-27T20:16:12.594Z,10.20
2019-01-27T20:19:31.948Z,10.10
2019-01-27T20:22:55.941Z,10.10
2019-01-27T20:26:03.265Z,10.10
2019-01-27T20:29:16.333Z,10.10
2019-01-27T20:32:52.284Z,10.00
2019-01-27T20:36:12.990Z,10.00
2019-01-27T20:39:23.747Z,10.00
2019-01-27T20:42:57.617Z,10.00
2019-01-27T20:46:06.220Z,9.90
2019-01-27T20:49:21.867Z,9.90
2019-01-27T20:52:48.340Z,9.90
2019-01-27T20:56:18.177Z,9.80
2019-01-27T20:59:44.529Z,9.80
2019-01-27T21:03:11.792Z,9.80
2019-01-27T21:06:32.254Z,9.80
2019-01-27T21:09:49.755Z,9.70
2019-01-27T21:13:02.224Z,9.70
2019-01-27T21:16:20.651Z,9.70
2019-01-27T21:19:46.614Z,9.70
2019-01-27T21:22:48.657Z,9.60
2019-01-27T21:26:09.396Z,9.60
2019-01-27T21:29:11.059Z,9.60
2019-01-27T21:32:12.731Z,9.60
2019-01-27T21:35:14.505Z,9.60
2019-01-27T21:38:16.140Z,9.50
2019-01-27T21:41:20.414Z,9.50
2019-01-27T21:44:21.910Z,9.50
2019-01-27T21:47:23.452Z,9.40
2019-01-27T21:50:26.191Z,9.50
2019-01-27T21:53:27.971Z,9.40
2019-01-27T21:56:29.605Z,9.40
2019-01-27T21:59:33.525Z,9.40
2019-01-27T22:02:36.091Z,9.40
2019-01-27T22:05:39.970Z,9.40
2019-01-27T22:08:41.820Z,9.30
2019-01-27T22:11:45.600Z,9.30
2019-01-27T22:14:49.445Z,9.30
2019-01-27T22:17:50.984Z,9.30
2019-01-27T22:20:52.591Z,9.30
2019-01-27T22:23:54.051Z,9.20
2019-01-27T22:26:56.649Z,9.20
2019-01-27T22:29:59.797Z,9.20
2019-01-27T22:33:01.325Z,9.20
2019-01-27T22:36:03.190Z,9.20
2019-01-27T22:39:07.720Z,9.10
2019-01-27T22:42:12.955Z,9.10
2019-01-27T22:45:15.918Z,9.10
2019-01-27T22:48:17.625Z,9.10
2019-01-27T22:51:21.385Z,9.10
2019-01-27T22:54:22.779Z,9.00
2019-01-27T22:57:24.227Z,9.00
2019-01-27T23:01:15.370Z,9.00
2019-01-27T23:04:16.970Z,9.00
2019-01-27T23:07:18.754Z,9.00
2019-01-27T23:10:20.362Z,8.90
2019-01-27T23:13:21.856Z,9.00
2019-01-27T23:16:23.400Z,8.90
2019-01-27T23:19:25.873Z,8.90
2019-01-27T23:22:27.293Z,8.90
2019-01-27T23:25:28.725Z,8.90
2019-01-27T23:28:30.670Z,8.80
2019-01-27T23:31:32.215Z,8.80
2019-01-27T23:34:33.788Z,8.80
2019-01-27T23:37:35.303Z,8.80
2019-01-27T23:40:36.766Z,8.80
2019-01-27T23:43:38.490Z,8.80
2019-01-27T23:46:41.805Z,8.70
2019-01-27T23:49:43.274Z,8.70
2019-01-27T23:52:44.747Z,8.70
2019-01-27T23:55:48.510Z,8.70
2019-01-27T23:58:53.293Z,8.60
